Time;durP1;ratioP1;P1;durP2;ratioP2;P2;SDS_P1;SDS_P2;PMS_P1;PMS_P2;Temp;Humidity;BMP_temperature;BMP_pressure;BME280_temperature;BME280_humidity;BME280_pressure;Samples;Min_cycle;Max_cycle;Signal;HPM_P1;HPM_P2
2023/07/17 00:02:03;;;;;;;10.95;5.32;;;13.50;99.90;;;;;;5128520;27;20054;-81
2023/07/17 00:04:29;;;;;;;12.15;5.10;;;13.40;99.90;;;;;;5140285;27;20032;-81
2023/07/17 00:06:54;;;;;;;8.77;5.22;;;13.40;99.90;;;;;;5094816;28;20551;-81
2023/07/17 00:09:20;;;;;;;10.48;5.13;;;13.40;99.90;;;;;;5112736;28;20027;-81
2023/07/17 00:11:46;;;;;;;12.48;5.05;;;13.50;99.90;;;;;;5112949;28;20139;-81
2023/07/17 00:14:12;;;;;;;11.20;5.43;;;13.40;99.90;;;;;;5112567;28;20103;-81
2023/07/17 00:16:37;;;;;;;12.63;5.95;;;13.40;99.90;;;;;;5112779;28;20130;-81
2023/07/17 00:19:03;;;;;;;9.60;5.22;;;13.40;99.90;;;;;;5112522;28;20508;-81
2023/07/17 00:21:28;;;;;;;9.98;5.35;;;13.40;99.90;;;;;;5111549;28;20038;-81
2023/07/17 00:23:54;;;;;;;12.88;5.55;;;13.40;99.90;;;;;;5093864;28;20024;-81
2023/07/17 00:26:20;;;;;;;8.35;5.47;;;13.30;99.90;;;;;;5128616;28;20031;-81
2023/07/17 00:28:46;;;;;;;9.40;5.38;;;13.30;99.90;;;;;;5111347;28;20137;-81
2023/07/17 00:31:12;;;;;;;12.80;6.57;;;13.30;99.90;;;;;;5104427;28;20114;-81
2023/07/17 00:33:37;;;;;;;13.23;6.18;;;13.30;99.90;;;;;;5110618;28;20015;-81
2023/07/17 00:36:03;;;;;;;10.85;5.85;;;13.30;99.90;;;;;;5111460;28;20035;-81
2023/07/17 00:38:29;;;;;;;17.73;6.13;;;13.30;99.90;;;;;;5094202;28;20024;-81
2023/07/17 00:40:54;;;;;;;10.55;5.78;;;13.30;99.90;;;;;;5111320;28;20024;-81
2023/07/17 00:43:54;;;;;;;10.73;5.75;;;13.40;99.90;;;;;;5094182;28;20031;-81
2023/07/17 00:46:22;;;;;;;16.88;6.90;;;13.40;99.90;;;;;;5094412;28;20039;-81
2023/07/17 00:48:47;;;;;;;14.32;6.50;;;13.30;99.90;;;;;;5113602;28;20035;-81
2023/07/17 00:51:13;;;;;;;14.32;6.63;;;13.30;99.90;;;;;;5097364;28;20020;-81
2023/07/17 00:53:39;;;;;;;13.63;5.82;;;13.40;99.90;;;;;;5097873;28;20127;-81
2023/07/17 00:56:05;;;;;;;12.15;6.47;;;13.40;99.90;;;;;;5097791;28;20100;-81
2023/07/17 00:58:31;;;;;;;11.20;6.38;;;13.40;99.90;;;;;;5097520;28;20023;-81
2023/07/17 01:00:57;;;;;;;15.80;7.13;;;13.50;99.90;;;;;;5097616;28;20479;-81
2023/07/17 01:03:25;;;;;;;10.93;6.03;;;13.50;99.90;;;;;;5098003;28;20104;-81
2023/07/17 01:05:50;;;;;;;12.52;6.10;;;13.50;99.90;;;;;;5114660;28;20043;-81
2023/07/17 01:08:16;;;;;;;12.18;6.35;;;13.40;99.90;;;;;;5114045;28;20151;-81
2023/07/17 01:10:42;;;;;;;10.55;5.85;;;13.40;99.90;;;;;;5113873;28;20020;-81
2023/07/17 01:13:11;;;;;;;12.52;6.40;;;13.40;99.90;;;;;;5097313;28;20100;-81
2023/07/17 01:15:37;;;;;;;12.88;6.15;;;13.40;99.90;;;;;;5089914;28;20027;-81
2023/07/17 01:18:03;;;;;;;13.18;5.95;;;13.30;99.90;;;;;;5097238;28;20413;-81
2023/07/17 01:20:28;;;;;;;17.77;7.75;;;13.30;99.90;;;;;;5114127;28;20536;-81
2023/07/17 01:23:45;;;;;;;13.88;6.78;;;13.40;99.90;;;;;;5093795;28;20030;-81
2023/07/17 01:26:17;;;;;;;13.23;6.32;;;13.40;99.90;;;;;;5086287;28;20020;-81
2023/07/17 01:28:44;;;;;;;15.63;7.65;;;13.40;99.90;;;;;;5113991;28;20084;-81
2023/07/17 01:31:10;;;;;;;10.93;5.20;;;13.40;99.90;;;;;;5113657;28;20500;-81
2023/07/17 01:33:36;;;;;;;15.57;5.82;;;13.40;99.90;;;;;;5097227;28;20467;-81
2023/07/17 01:36:21;;;;;;;11.15;6.22;;;13.30;99.90;;;;;;5097060;28;20031;-81
2023/07/17 01:38:46;;;;;;;15.18;6.53;;;13.30;99.90;;;;;;5113802;28;20023;-81
2023/07/17 01:41:12;;;;;;;13.38;6.10;;;13.40;99.90;;;;;;5096911;28;20355;-81
2023/07/17 01:43:37;;;;;;;14.60;6.03;;;13.40;99.90;;;;;;5096650;28;20027;-81
2023/07/17 01:46:03;;;;;;;16.77;6.38;;;13.40;99.90;;;;;;5113518;28;20126;-81
2023/07/17 01:48:38;;;;;;;14.32;6.00;;;13.40;99.90;;;;;;5113653;28;20038;-81
2023/07/17 01:51:05;;;;;;;11.38;5.75;;;13.30;99.90;;;;;;5113425;28;20027;-81
2023/07/17 01:53:30;;;;;;;10.48;5.65;;;13.30;99.90;;;;;;5096281;28;20019;-81
2023/07/17 01:55:56;;;;;;;12.63;5.78;;;13.30;99.90;;;;;;5096026;28;20023;-81
2023/07/17 01:58:22;;;;;;;14.35;6.57;;;13.30;99.90;;;;;;5113141;28;20771;-81
2023/07/17 02:00:55;;;;;;;8.50;5.43;;;13.30;99.90;;;;;;5096523;28;20035;-81
2023/07/17 02:03:54;;;;;;;13.43;6.50;;;13.20;99.90;;;;;;5113340;28;20047;-81
2023/07/17 02:06:21;;;;;;;10.10;5.43;;;13.20;99.90;;;;;;5096061;28;20019;-81
2023/07/17 02:08:46;;;;;;;15.63;6.65;;;13.20;99.90;;;;;;5096053;28;20031;-81
2023/07/17 02:11:12;;;;;;;11.32;6.13;;;13.20;99.90;;;;;;5112948;28;20035;-81
2023/07/17 02:13:37;;;;;;;12.65;5.90;;;13.20;99.90;;;;;;5113058;28;20020;-81
2023/07/17 02:16:03;;;;;;;13.32;6.22;;;13.20;99.90;;;;;;5096065;28;20032;-81
2023/07/17 02:18:51;;;;;;;12.65;6.60;;;13.20;99.90;;;;;;5096167;28;20576;-81
2023/07/17 02:21:29;;;;;;;10.15;6.22;;;13.10;99.90;;;;;;5127081;27;20103;-81
2023/07/17 02:23:57;;;;;;;15.10;6.88;;;13.10;99.90;;;;;;5095679;28;20024;-81
2023/07/17 02:26:23;;;;;;;12.45;6.43;;;13.10;99.90;;;;;;5095309;28;20038;-81
2023/07/17 02:28:48;;;;;;;12.02;5.60;;;13.10;99.90;;;;;;5095261;28;20027;-80
2023/07/17 02:31:14;;;;;;;8.98;5.78;;;13.00;99.90;;;;;;5095320;28;20467;-81
2023/07/17 02:33:40;;;;;;;12.50;6.20;;;13.00;99.90;;;;;;5095561;28;20153;-81
2023/07/17 02:36:06;;;;;;;11.93;6.18;;;13.00;99.90;;;;;;5112571;28;20743;-81
2023/07/17 02:38:31;;;;;;;9.98;6.03;;;13.00;99.90;;;;;;5112275;28;20059;-81
2023/07/17 02:40:57;;;;;;;11.65;6.10;;;12.90;99.90;;;;;;5095286;28;20386;-81
2023/07/17 02:43:23;;;;;;;10.85;6.63;;;12.90;99.90;;;;;;5112196;28;20500;-81
2023/07/17 02:45:48;;;;;;;11.82;6.35;;;12.80;99.90;;;;;;5095974;28;20016;-81
2023/07/17 02:48:14;;;;;;;17.65;7.13;;;12.80;99.90;;;;;;5095613;28;20035;-81
2023/07/17 02:50:40;;;;;;;14.75;6.65;;;12.70;99.90;;;;;;5112459;28;20016;-81
2023/07/17 02:53:05;;;;;;;12.30;6.85;;;12.70;99.90;;;;;;5095347;28;20110;-81
2023/07/17 02:55:31;;;;;;;15.55;6.78;;;12.70;99.90;;;;;;5095379;28;20055;-81
2023/07/17 02:57:57;;;;;;;15.30;6.15;;;12.70;99.90;;;;;;5095734;28;20107;-81
2023/07/17 03:00:23;;;;;;;13.25;7.07;;;12.50;99.90;;;;;;5095404;28;20032;-81
2023/07/17 03:02:48;;;;;;;11.80;6.43;;;12.50;99.90;;;;;;5112188;28;20027;-81
2023/07/17 03:05:14;;;;;;;13.73;6.55;;;12.50;99.90;;;;;;5112402;28;20478;-81
2023/07/17 03:07:59;;;;;;;10.48;6.68;;;12.60;99.90;;;;;;5095136;28;20531;-81
2023/07/17 03:10:25;;;;;;;14.65;6.90;;;12.60;99.90;;;;;;5111454;28;20031;-81
2023/07/17 03:12:51;;;;;;;12.57;6.63;;;12.60;99.90;;;;;;5112194;28;20030;-81
2023/07/17 03:15:16;;;;;;;18.63;6.53;;;12.60;99.90;;;;;;5095184;28;20023;-81
2023/07/17 03:18:32;;;;;;;18.38;7.28;;;12.60;99.90;;;;;;5094906;28;20054;-81
2023/07/17 03:20:58;;;;;;;16.52;7.70;;;12.60;99.90;;;;;;5108523;28;20106;-81
2023/07/17 03:23:23;;;;;;;13.98;6.97;;;12.60;99.90;;;;;;5109879;28;20115;-81
2023/07/17 03:25:49;;;;;;;12.77;7.38;;;12.60;99.90;;;;;;5095011;28;20023;-81
2023/07/17 03:28:15;;;;;;;17.45;7.35;;;12.70;99.90;;;;;;5094289;28;20386;-81
2023/07/17 03:30:42;;;;;;;13.40;6.65;;;12.90;99.90;;;;;;5073877;28;21912;-81
2023/07/17 03:33:17;;;;;;;13.57;7.90;;;13.00;99.90;;;;;;5074785;28;20059;-81
2023/07/17 03:35:45;;;;;;;12.43;6.97;;;13.00;99.90;;;;;;5089304;28;20024;-81
2023/07/17 03:38:11;;;;;;;14.13;6.75;;;13.10;99.90;;;;;;5106864;28;20391;-81
2023/07/17 03:40:37;;;;;;;15.45;7.45;;;13.10;99.90;;;;;;5090911;28;20024;-81
2023/07/17 03:43:04;;;;;;;15.00;7.15;;;13.10;99.90;;;;;;5091004;28;20035;-81
2023/07/17 03:45:29;;;;;;;14.68;7.28;;;13.10;99.90;;;;;;5073964;28;20027;-81
2023/07/17 03:47:55;;;;;;;18.50;7.18;;;13.10;99.90;;;;;;5074213;28;20457;-81
2023/07/17 03:50:21;;;;;;;14.18;6.57;;;13.00;99.90;;;;;;5090736;28;20103;-81
2023/07/17 03:52:47;;;;;;;17.17;7.78;;;13.00;99.90;;;;;;5090708;28;20020;-81
2023/07/17 03:55:15;;;;;;;17.30;7.85;;;13.00;99.90;;;;;;5070415;28;20020;-81
2023/07/17 03:57:41;;;;;;;15.10;6.97;;;13.00;99.90;;;;;;5074842;28;20044;-81
2023/07/17 04:00:14;;;;;;;11.82;6.38;;;13.00;99.90;;;;;;5090187;28;20024;-81
2023/07/17 04:02:44;;;;;;;11.38;6.68;;;12.90;99.90;;;;;;5091544;28;20040;-81
2023/07/17 04:05:36;;;;;;;11.55;7.07;;;13.00;99.90;;;;;;5090549;28;20035;-81
2023/07/17 04:08:02;;;;;;;19.98;6.80;;;13.00;99.90;;;;;;5090557;28;20020;-81
2023/07/17 04:10:29;;;;;;;13.43;6.63;;;13.00;99.90;;;;;;5073807;28;20082;-81
2023/07/17 04:12:55;;;;;;;16.33;6.95;;;13.10;99.90;;;;;;5090105;28;20756;-81
2023/07/17 04:15:21;;;;;;;14.10;6.72;;;13.20;99.90;;;;;;5090108;28;20058;-81
2023/07/17 04:17:47;;;;;;;13.32;6.65;;;13.30;99.90;;;;;;5073112;28;20024;-81
2023/07/17 04:20:12;;;;;;;15.88;6.30;;;13.40;99.90;;;;;;5073691;28;20093;-81
2023/07/17 04:22:39;;;;;;;12.45;7.28;;;13.70;99.90;;;;;;5076570;28;20024;-81
2023/07/17 04:25:05;;;;;;;10.93;6.25;;;14.00;99.90;;;;;;5094868;28;20535;-81
2023/07/17 04:27:31;;;;;;;13.95;5.65;;;14.20;99.90;;;;;;5094818;28;20028;-81
2023/07/17 04:29:59;;;;;;;16.67;6.43;;;14.30;99.90;;;;;;5094028;28;20028;-82
2023/07/17 04:32:29;;;;;;;13.75;5.95;;;14.60;99.90;;;;;;5110930;28;20024;-81
2023/07/17 04:34:56;;;;;;;12.65;5.72;;;14.70;99.90;;;;;;5077888;28;20052;-81
2023/07/17 04:37:22;;;;;;;20.83;5.50;;;14.80;99.90;;;;;;5076855;28;20050;-81
2023/07/17 04:39:48;;;;;;;7.95;5.32;;;14.80;99.90;;;;;;5094815;28;20099;-81
2023/07/17 04:42:14;;;;;;;15.02;6.13;;;14.90;99.90;;;;;;5094246;28;20116;-81
2023/07/17 04:44:43;;;;;;;10.88;5.60;;;15.00;99.90;;;;;;5077471;28;20401;-81
2023/07/17 04:47:10;;;;;;;10.57;5.63;;;15.30;99.90;;;;;;5093815;28;20021;-81
2023/07/17 04:49:37;;;;;;;17.42;6.05;;;15.60;99.90;;;;;;5093771;28;20039;-82
2023/07/17 04:52:12;;;;;;;14.10;5.28;;;15.80;99.90;;;;;;5076658;28;20028;-81
2023/07/17 04:54:38;;;;;;;12.65;5.97;;;15.90;99.90;;;;;;5110818;28;20180;-81
2023/07/17 04:57:04;;;;;;;16.00;5.68;;;15.90;99.90;;;;;;5093720;28;20111;-81
2023/07/17 04:59:31;;;;;;;12.20;5.20;;;16.00;99.90;;;;;;5110695;28;20035;-81
2023/07/17 05:01:56;;;;;;;12.05;4.90;;;16.00;99.90;;;;;;5066003;28;20020;-82
2023/07/17 05:04:23;;;;;;;17.40;8.90;;;16.10;99.90;;;;;;5097434;28;20039;-82
2023/07/17 05:06:48;;;;;;;14.55;5.15;;;16.20;99.90;;;;;;5089306;28;20029;-82
2023/07/17 05:09:14;;;;;;;13.10;5.30;;;16.40;99.90;;;;;;5087585;28;20037;-81
2023/07/17 05:11:41;;;;;;;;;;;16.50;99.90;;;;;;5104319;28;20057;-81
2023/07/17 05:14:07;;;;;;;10.10;5.20;;;16.60;99.90;;;;;;5073510;28;20086;-81
2023/07/17 05:16:35;;;;;;;;;;;16.60;99.90;;;;;;5070128;28;20040;-82
2023/07/17 05:19:00;;;;;;;;;;;16.70;99.90;;;;;;5109808;28;20069;-81
2023/07/17 05:21:31;;;;;;;;;;;16.80;99.90;;;;;;5087130;28;20040;-81
2023/07/17 05:23:57;;;;;;;;;;;16.80;99.90;;;;;;5076140;28;20114;-81
2023/07/17 05:26:23;;;;;;;11.50;5.80;;;16.70;99.90;;;;;;5090246;28;20093;-81
2023/07/17 05:28:50;;;;;;;;;;;16.70;99.90;;;;;;5069993;28;20043;-82
2023/07/17 05:31:16;;;;;;;;;;;16.70;99.90;;;;;;5105301;28;20036;-81
2023/07/17 05:33:42;;;;;;;;;;;16.70;99.90;;;;;;5085629;28;20043;-82
2023/07/17 05:36:07;;;;;;;;;;;16.80;99.90;;;;;;5104078;28;20032;-81
2023/07/17 05:38:33;;;;;;;;;;;16.80;99.90;;;;;;5106034;28;20040;-81
2023/07/17 05:41:00;;;;;;;;;;;16.80;99.90;;;;;;5083744;28;20499;-81
2023/07/17 05:43:26;;;;;;;;;;;16.70;99.90;;;;;;5101201;28;20099;-81
2023/07/17 05:45:59;;;;;;;;;;;16.70;99.90;;;;;;5076437;28;20036;-81
2023/07/17 05:48:26;;;;;;;;;;;16.70;99.90;;;;;;5092892;28;20106;-81
2023/07/17 05:50:51;;;;;;;;;;;16.80;99.90;;;;;;5075967;28;20059;-81
2023/07/17 05:53:18;;;;;;;;;;;16.80;99.90;;;;;;5109832;27;20034;-81
2023/07/17 05:55:44;;;;;;;;;;;16.90;99.90;;;;;;5126617;27;20453;-82
2023/07/17 05:58:09;;;;;;;;;;;16.90;99.90;;;;;;5111048;28;20440;-81
2023/07/17 06:00:35;;;;;;;11.20;5.10;;;16.90;99.90;;;;;;5093010;28;20043;-81
2023/07/17 06:03:01;;;;;;;;;;;17.10;99.90;;;;;;5092884;28;20059;-81
2023/07/17 06:05:26;;;;;;;;;;;17.10;99.90;;;;;;5109883;28;20039;-81
2023/07/17 06:07:52;;;;;;;;;;;17.20;99.90;;;;;;5127350;27;20063;-81
2023/07/17 06:10:18;;;;;;;;;;;17.30;99.90;;;;;;5094500;28;20425;-82
2023/07/17 06:15:51;;;;;;;;;;;17.40;99.90;;;;;;5094332;28;20490;-81
2023/07/17 06:18:16;;;;;;;;;;;17.40;99.90;;;;;;5092677;28;20093;-81
2023/07/17 06:20:42;;;;;;;;;;;17.40;99.90;;;;;;5091889;28;20039;-82
2023/07/17 06:23:07;;;;;;;;;;;17.40;99.90;;;;;;5108830;28;20123;-81
2023/07/17 06:25:34;;;;;;;;;;;17.40;99.90;;;;;;5092101;28;20047;-82
2023/07/17 06:27:59;;;;;;;;;;;17.50;99.90;;;;;;5109079;28;20097;-81
2023/07/17 06:30:25;;;;;;;;;;;17.50;99.90;;;;;;5092923;28;20048;-81
2023/07/17 06:32:51;;;;;;;;;;;17.60;99.90;;;;;;5093084;28;20039;-82
2023/07/17 06:35:16;;;;;;;;;;;17.70;99.90;;;;;;5092315;28;20034;-80
2023/07/17 06:37:42;;;;;;;;;;;17.80;99.90;;;;;;5090032;28;20057;-81
2023/07/17 06:40:08;;;;;;;;;;;17.90;99.90;;;;;;5074007;28;20107;-81
2023/07/17 06:42:33;;;;;;;;;;;18.00;99.90;;;;;;5093017;28;20039;-81
2023/07/17 06:44:59;;;;;;;;;;;18.10;99.90;;;;;;5091247;28;20053;-81
2023/07/17 06:47:25;;;;;;;;;;;18.30;99.90;;;;;;5082342;28;20501;-81
2023/07/17 06:49:51;;;;;;;;;;;18.40;99.90;;;;;;5106412;28;20076;-82
2023/07/17 06:52:16;;;;;;;;;;;18.40;99.90;;;;;;5123190;27;20038;-81
2023/07/17 06:54:42;;;;;;;;;;;18.50;99.90;;;;;;5100067;28;20046;-81
2023/07/17 06:57:07;;;;;;;;;;;18.60;99.90;;;;;;5118523;27;20070;-82
2023/07/17 06:59:33;;;;;;;;;;;18.60;99.90;;;;;;5085720;28;20076;-81
2023/07/17 07:01:58;;;;;;;;;;;18.70;99.90;;;;;;5081309;28;20036;-81
2023/07/17 07:04:24;;;;;;;;;;;18.60;99.90;;;;;;5088436;28;20046;-82
2023/07/17 07:06:50;;;;;;;;;;;18.70;99.90;;;;;;5121661;27;20034;-81
2023/07/17 07:09:15;;;;;;;;;;;18.70;99.90;;;;;;5082842;28;20061;-81
2023/07/17 07:11:41;;;;;;;;;;;18.80;99.90;;;;;;5084407;28;20070;-81
2023/07/17 07:14:06;;;;;;;;;;;18.70;99.90;;;;;;5120989;27;20036;-81
2023/07/17 07:16:32;;;;;;;;;;;18.70;99.90;;;;;;5121980;27;20084;-81
2023/07/17 07:18:58;;;;;;;;;;;18.80;99.90;;;;;;5072283;28;20052;-81
2023/07/17 07:21:23;;;;;;;;;;;18.90;99.90;;;;;;5085616;28;20174;-82
2023/07/17 07:23:49;;;;;;;;;;;19.00;99.90;;;;;;5112784;27;20095;-81
2023/07/17 07:26:14;;;;;;;;;;;19.00;99.90;;;;;;5068828;28;20082;-81
2023/07/17 07:28:40;;;;;;;;;;;19.10;99.90;;;;;;5100048;28;20061;-81
2023/07/17 07:31:06;;;;;;;;;;;19.10;99.90;;;;;;5112621;27;20042;-81
2023/07/17 07:33:31;;;;;;;;;;;19.10;99.90;;;;;;5114384;27;20027;-82
2023/07/17 07:35:57;;;;;;;;;;;19.30;99.90;;;;;;5086450;28;20125;-81
2023/07/17 07:38:22;;;;;;;;;;;19.40;99.90;;;;;;5099178;28;20066;-81
2023/07/17 07:40:49;;;;;;;;;;;19.60;99.90;;;;;;5100726;28;20031;-81
2023/07/17 07:43:14;;;;;;;;;;;19.90;99.90;;;;;;5099514;28;20039;-82
2023/07/17 07:45:40;;;;;;;;;;;20.00;99.90;;;;;;5100999;28;20149;-82
2023/07/17 07:48:06;;;;;;;;;;;20.00;99.90;;;;;;5084459;28;20066;-81
2023/07/17 07:50:31;;;;;;;;;;;20.20;99.90;;;;;;5098297;28;20126;-82
2023/07/17 07:52:57;;;;;;;;;;;20.20;99.90;;;;;;5083847;28;20031;-81
2023/07/17 07:55:22;;;;;;;;;;;20.30;99.90;;;;;;5086166;28;20042;-81
2023/07/17 07:57:48;;;;;;;;;;;20.60;99.90;;;;;;5090853;28;20019;-81
2023/07/17 08:00:14;;;;;;;;;;;21.20;99.90;;;;;;5080580;28;20040;-82
2023/07/17 08:02:41;;;;;;;;;;;22.40;99.90;;;;;;5091601;28;20384;-82
2023/07/17 08:05:08;;;;;;;;;;;23.90;99.90;;;;;;5082489;28;20111;-82
2023/07/17 08:07:33;;;;;;;;;;;25.20;99.90;;;;;;5087088;28;20318;-82
2023/07/17 08:09:59;;;;;;;;;;;26.00;99.90;;;;;;5134973;27;20031;-82
2023/07/17 08:12:25;;;;;;;;;;;26.20;99.90;;;;;;5099076;28;20080;-82
2023/07/17 08:14:51;;;;;;;;;;;27.10;99.90;;;;;;5095355;28;20040;-82
2023/07/17 08:17:16;;;;;;;11.73;4.35;;;27.70;99.90;;;;;;5096709;28;20074;-82
2023/07/17 08:19:47;;;;;;;9.68;4.68;;;28.10;99.90;;;;;;5128542;27;20042;-82
2023/07/17 08:22:13;;;;;;;10.10;4.97;;;27.70;99.90;;;;;;5094162;28;20740;-83
2023/07/17 08:24:45;;;;;;;17.60;4.78;;;26.70;99.50;;;;;;5098188;28;20027;-82
2023/07/17 08:27:10;;;;;;;21.85;15.48;;;26.10;99.40;;;;;;5095630;28;20024;-82
2023/07/17 08:29:36;;;;;;;12.90;4.88;;;25.30;99.90;;;;;;5095819;28;20039;-82
2023/07/17 08:32:54;;;;;;;10.50;4.75;;;25.50;99.90;;;;;;5095398;28;20417;-82
2023/07/17 08:35:20;;;;;;;8.13;4.65;;;24.90;99.90;;;;;;5099974;28;20115;-82
2023/07/17 08:37:45;;;;;;;9.23;4.90;;;24.90;99.90;;;;;;5094435;28;20457;-82
2023/07/17 08:40:11;;;;;;;14.32;6.35;;;25.00;99.90;;;;;;5094533;28;20028;-82
2023/07/17 08:42:38;;;;;;;17.67;5.78;;;25.10;99.90;;;;;;5082590;28;20062;-82
2023/07/17 08:45:06;;;;;;;12.55;5.78;;;24.90;99.90;;;;;;5069863;28;20028;-82
2023/07/17 08:47:32;;;;;;;18.33;5.65;;;25.20;99.90;;;;;;5088900;28;20035;-83
2023/07/17 08:50:00;;;;;;;9.32;4.72;;;25.30;99.90;;;;;;5089640;28;20020;-82
2023/07/17 08:52:27;;;;;;;11.38;5.57;;;25.60;99.90;;;;;;5073660;28;20036;-82
2023/07/17 08:54:53;;;;;;;11.13;4.93;;;24.80;99.90;;;;;;5085716;28;20050;-82
2023/07/17 08:57:20;;;;;;;8.80;4.82;;;24.40;99.90;;;;;;5070417;28;20476;-82
2023/07/17 08:59:46;;;;;;;13.07;5.60;;;25.00;99.90;;;;;;5094835;28;20041;-82
2023/07/17 09:02:11;;;;;;;8.65;5.25;;;25.80;99.90;;;;;;5085512;28;20023;-82
2023/07/17 09:04:37;;;;;;;11.98;5.38;;;26.20;99.70;;;;;;5068681;28;20472;-82
2023/07/17 09:07:03;;;;;;;10.20;5.85;;;25.90;99.70;;;;;;5075644;28;20031;-82
2023/07/17 09:09:29;;;;;;;11.35;5.18;;;25.70;99.30;;;;;;5086388;28;20071;-82
2023/07/17 09:12:11;;;;;;;10.38;5.85;;;25.00;99.90;;;;;;5086100;28;20516;-82
2023/07/17 09:14:38;;;;;;;10.65;4.88;;;25.00;99.90;;;;;;5077803;28;20036;-82
2023/07/17 09:17:07;;;;;;;8.48;5.13;;;24.90;99.90;;;;;;5106245;28;20644;-82
2023/07/17 09:19:34;;;;;;;10.43;4.68;;;25.30;99.90;;;;;;5090902;28;20560;-82
2023/07/17 09:22:05;;;;;;;13.77;5.63;;;25.60;98.90;;;;;;5099580;28;20039;-82
2023/07/17 09:24:36;;;;;;;10.23;5.28;;;25.50;97.60;;;;;;5086693;28;20032;-82
2023/07/17 09:27:06;;;;;;;12.27;5.82;;;24.80;99.40;;;;;;5074910;28;20028;-82
2023/07/17 09:29:32;;;;;;;9.65;5.97;;;25.30;97.90;;;;;;5101869;28;20036;-82
2023/07/17 09:32:18;;;;;;;15.82;5.10;;;25.70;96.60;;;;;;5092369;28;20020;-82
2023/07/17 09:34:52;;;;;;;12.88;5.28;;;26.60;95.50;;;;;;5099832;28;20028;-82
2023/07/17 09:38:04;;;;;;;11.10;5.35;;;26.30;94.20;;;;;;5084847;28;20033;-82
2023/07/17 09:40:33;;;;;;;10.18;4.72;;;26.30;94.20;;;;;;5100755;28;20525;-82
2023/07/17 09:43:05;;;;;;;11.48;5.40;;;26.40;94.40;;;;;;5088525;28;20012;-82
2023/07/17 09:45:32;;;;;;;9.05;4.75;;;26.30;91.80;;;;;;5070475;28;20031;-82
2023/07/17 09:48:17;;;;;;;12.43;5.35;;;26.20;92.10;;;;;;5091650;28;20115;-82
2023/07/17 09:50:43;;;;;;;12.35;5.95;;;25.40;92.20;;;;;;5082342;28;20024;-82
2023/07/17 09:53:10;;;;;;;13.02;5.10;;;25.80;92.30;;;;;;5103725;28;20534;-82
2023/07/17 09:55:37;;;;;;;14.07;4.88;;;26.50;92.20;;;;;;5090984;28;20024;-82
2023/07/17 09:58:05;;;;;;;11.48;5.28;;;27.00;91.90;;;;;;5114001;27;20107;-82
2023/07/17 10:00:32;;;;;;;9.85;4.93;;;27.00;90.60;;;;;;5066480;28;20031;-82
2023/07/17 10:03:03;;;;;;;15.82;4.65;;;26.50;90.20;;;;;;5077866;28;20063;-82
2023/07/17 10:05:31;;;;;;;16.08;5.65;;;25.90;91.50;;;;;;5087790;28;20035;-82
2023/07/17 10:07:59;;;;;;;12.50;5.15;;;26.00;91.90;;;;;;5092228;28;20471;-82
2023/07/17 10:10:24;;;;;;;12.10;5.47;;;25.70;91.20;;;;;;5075573;28;20046;-82
2023/07/17 10:12:50;;;;;;;11.15;4.90;;;25.80;91.70;;;;;;5092804;28;20028;-82
2023/07/17 10:15:16;;;;;;;9.52;4.47;;;26.20;91.60;;;;;;5092906;28;20452;-82
2023/07/17 10:17:42;;;;;;;9.13;4.90;;;26.60;90.60;;;;;;5093514;28;20032;-82
2023/07/17 10:20:39;;;;;;;7.93;4.28;;;26.00;91.00;;;;;;5075348;28;20665;-82
2023/07/17 10:23:25;;;;;;;8.73;5.15;;;26.20;91.80;;;;;;5092862;28;20086;-82
2023/07/17 10:25:52;;;;;;;15.52;5.30;;;26.50;90.00;;;;;;5092539;28;20058;-82
2023/07/17 10:28:34;;;;;;;12.48;4.57;;;26.60;90.50;;;;;;5093767;28;20024;-82
2023/07/17 10:31:33;;;;;;;15.65;4.88;;;26.40;91.50;;;;;;5108988;28;20482;-82
2023/07/17 10:34:02;;;;;;;14.95;4.50;;;26.20;90.70;;;;;;5063792;28;20039;-82
2023/07/17 10:36:38;;;;;;;8.43;4.63;;;26.10;89.00;;;;;;5075627;28;20471;-82
2023/07/17 10:39:05;;;;;;;11.25;4.80;;;25.70;89.60;;;;;;5091916;28;20104;-82
2023/07/17 10:41:31;;;;;;;10.77;4.68;;;25.80;90.00;;;;;;5091535;28;20467;-82
2023/07/17 10:44:00;;;;;;;11.18;4.30;;;25.50;90.20;;;;;;5091536;28;20066;-83
2023/07/17 10:46:50;;;;;;;11.95;5.05;;;25.00;90.60;;;;;;5074803;28;20032;-83
2023/07/17 10:49:17;;;;;;;7.95;4.57;;;24.30;92.00;;;;;;5072262;28;20127;-82
2023/07/17 10:51:49;;;;;;;9.45;4.55;;;24.30;93.00;;;;;;5125548;27;20035;-81
2023/07/17 10:54:18;;;;;;;9.52;4.55;;;24.70;91.60;;;;;;5091590;28;20024;-82
2023/07/17 10:56:46;;;;;;;7.65;4.30;;;25.20;90.50;;;;;;5092511;28;20071;-82
2023/07/17 10:59:17;;;;;;;7.43;4.55;;;25.90;89.90;;;;;;5074669;28;20436;-82
2023/07/17 11:01:44;;;;;;;9.68;4.40;;;26.60;89.30;;;;;;5091065;28;20028;-82
2023/07/17 11:04:09;;;;;;;7.18;4.00;;;26.90;88.50;;;;;;5091476;28;20426;-80
2023/07/17 11:06:35;;;;;;;9.52;4.50;;;27.00;87.70;;;;;;5074560;28;20036;-80
2023/07/17 11:09:02;;;;;;;8.00;4.22;;;26.40;85.80;;;;;;5074451;28;20036;-82
2023/07/17 11:11:29;;;;;;;9.45;4.22;;;26.00;83.50;;;;;;5091319;28;20024;-82
2023/07/17 11:13:54;;;;;;;8.88;4.68;;;25.80;83.70;;;;;;5074497;28;20035;-82
2023/07/17 11:16:24;;;;;;;10.38;4.75;;;25.50;85.10;;;;;;5088199;28;20800;-82
2023/07/17 11:18:52;;;;;;;7.97;4.55;;;25.20;85.90;;;;;;5088437;28;20028;-82
2023/07/17 11:21:20;;;;;;;9.85;5.28;;;25.30;88.60;;;;;;5087944;28;20073;-82
2023/07/17 11:23:57;;;;;;;11.70;5.10;;;25.70;86.30;;;;;;5087126;28;20663;-82
2023/07/17 11:26:27;;;;;;;7.35;4.57;;;25.50;86.60;;;;;;5086054;28;20021;-82
2023/07/17 11:28:58;;;;;;;11.50;4.70;;;25.60;88.30;;;;;;5086131;28;20119;-82
2023/07/17 11:31:29;;;;;;;15.65;4.63;;;25.50;88.40;;;;;;5085381;28;20080;-82
2023/07/17 11:33:56;;;;;;;;;;;26.20;89.70;;;;;;5082602;28;20052;-82
2023/07/17 11:36:21;;;;;;;11.02;4.68;;;25.70;88.40;;;;;;5074162;28;19904;-82
2023/07/17 11:38:47;;;;;;;10.40;5.40;;;24.90;89.40;;;;;;5063115;28;20032;-82
2023/07/17 11:41:13;;;;;;;11.25;5.32;;;25.00;90.30;;;;;;5083766;28;20048;-82
2023/07/17 11:43:38;;;;;;;10.23;4.82;;;25.00;90.00;;;;;;5066633;28;20032;-82
2023/07/17 11:46:09;;;;;;;10.07;4.80;;;25.10;89.40;;;;;;5095244;28;20030;-82
2023/07/17 11:48:47;;;;;;;9.60;5.15;;;25.30;90.30;;;;;;5073647;28;20478;-82
2023/07/17 11:51:13;;;;;;;11.75;4.90;;;26.00;87.50;;;;;;5131658;27;20036;-82
2023/07/17 11:54:03;;;;;;;13.98;5.03;;;25.70;88.90;;;;;;5107217;28;20544;-82
2023/07/17 11:56:40;;;;;;;11.15;4.60;;;25.60;89.10;;;;;;5083291;28;20031;-82
2023/07/17 11:59:19;;;;;;;11.88;5.68;;;26.00;89.30;;;;;;5082504;28;20028;-82
2023/07/17 12:01:45;;;;;;;7.63;4.45;;;25.70;89.10;;;;;;5083471;28;20417;-82
2023/07/17 12:04:41;;;;;;;9.50;4.93;;;25.30;86.90;;;;;;5086672;28;20103;-82
2023/07/17 12:07:18;;;;;;;9.80;4.55;;;25.30;86.10;;;;;;5058798;28;20119;-82
2023/07/17 12:09:44;;;;;;;15.82;5.50;;;25.20;86.40;;;;;;5070493;28;20115;-81
2023/07/17 12:12:26;;;;;;;6.93;4.30;;;24.80;87.40;;;;;;5091420;28;20032;-82
2023/07/17 12:14:52;;;;;;;11.40;4.90;;;24.80;89.30;;;;;;5078153;28;20024;-82
2023/07/17 12:17:42;;;;;;;9.15;4.60;;;25.30;89.20;;;;;;5088353;28;20073;-82
2023/07/17 12:20:08;;;;;;;12.60;5.07;;;25.70;86.00;;;;;;5062214;28;20081;-82
2023/07/17 12:22:34;;;;;;;8.10;4.45;;;25.90;84.60;;;;;;5084763;28;20112;-82
2023/07/17 12:24:59;;;;;;;13.80;4.90;;;26.40;83.30;;;;;;5078274;28;20783;-82
2023/07/17 12:27:25;;;;;;;9.52;4.88;;;26.80;82.10;;;;;;5090596;28;20043;-82
2023/07/17 12:29:51;;;;;;;8.82;4.60;;;25.80;82.10;;;;;;5080466;28;20115;-82
2023/07/17 12:32:16;;;;;;;7.40;4.82;;;25.70;82.10;;;;;;5083977;28;20117;-82
2023/07/17 12:34:42;;;;;;;10.05;4.88;;;25.60;83.30;;;;;;5081853;28;20097;-82
2023/07/17 12:37:08;;;;;;;6.60;4.35;;;25.50;82.00;;;;;;5084577;28;20035;-82
2023/07/17 12:39:33;;;;;;;9.30;4.47;;;25.70;82.60;;;;;;5089187;28;20050;-82
2023/07/17 12:41:59;;;;;;;8.25;3.92;;;26.30;82.40;;;;;;5088029;28;20095;-82
2023/07/17 12:44:25;;;;;;;7.93;4.22;;;27.10;81.70;;;;;;5077375;28;20124;-82
2023/07/17 12:46:50;;;;;;;8.40;4.30;;;27.90;79.40;;;;;;5087098;28;20028;-82
2023/07/17 12:49:16;;;;;;;7.18;4.28;;;28.50;77.40;;;;;;5093282;28;20020;-82
2023/07/17 12:51:42;;;;;;;12.38;4.07;;;28.90;75.00;;;;;;5080484;28;20024;-82
2023/07/17 12:54:09;;;;;;;10.90;4.85;;;29.30;74.80;;;;;;5087482;28;20115;-80
2023/07/17 12:57:18;;;;;;;8.05;4.57;;;29.20;74.30;;;;;;5073475;28;20056;-80
2023/07/17 12:59:44;;;;;;;7.53;4.38;;;28.60;73.80;;;;;;5083947;28;20507;-80
2023/07/17 13:02:09;;;;;;;9.02;4.63;;;28.10;75.50;;;;;;5081157;28;20024;-79
2023/07/17 13:04:35;;;;;;;10.00;4.13;;;28.00;76.50;;;;;;5070875;28;20036;-83
2023/07/17 13:07:01;;;;;;;7.78;4.18;;;27.80;75.10;;;;;;5111214;27;20035;-82
2023/07/17 13:09:27;;;;;;;6.43;4.18;;;27.80;75.50;;;;;;5083785;28;20036;-82
2023/07/17 13:11:54;;;;;;;7.38;4.00;;;28.40;75.70;;;;;;5102600;28;20426;-83